createdAt,value
2022-10-09T00:34:50.009Z,25.80
2022-10-09T00:35:50.983Z,26.10
2022-10-09T00:38:28.863Z,26.50
2022-10-09T00:39:29.724Z,26.90
2022-10-09T00:41:44.927Z,25.80
2022-10-09T00:42:46.520Z,25.70
2022-10-09T00:45:41.589Z,26.40
2022-10-09T00:46:42.541Z,27.80
2022-10-09T00:53:15.077Z,30.30
2022-10-09T00:54:12.981Z,30.90
2022-10-09T00:55:17.028Z,30.30
2022-10-09T00:56:11.724Z,29.30
2022-10-09T00:58:05.084Z,28.30
2022-10-09T00:59:05.743Z,28.40
2022-10-09T01:00:07.529Z,27.90
2022-10-09T01:01:05.794Z,28.20
2022-10-09T01:02:05.856Z,27.50
2022-10-09T01:03:05.798Z,26.80
2022-10-09T01:04:30.409Z,27.40
2022-10-09T01:05:05.750Z,28.80
2022-10-09T01:06:05.724Z,28.50
2022-10-09T01:07:05.711Z,29.10
2022-10-09T01:08:05.671Z,27.80
2022-10-09T01:09:05.703Z,26.40
2022-10-09T01:10:05.613Z,26.80
2022-10-09T01:12:20.486Z,25.90
2022-10-09T01:13:19.480Z,26.50
2022-10-09T01:14:19.472Z,27.40
2022-10-09T01:15:19.428Z,32.00
2022-10-09T01:17:32.677Z,31.90
2022-10-09T01:18:32.951Z,32.20
2022-10-09T01:19:32.999Z,36.20
2022-10-09T01:20:54.985Z,37.30
2022-10-09T01:21:32.978Z,41.80
2022-10-09T01:22:32.952Z,38.20
2022-10-09T01:23:32.971Z,39.10
2022-10-09T01:24:32.927Z,39.60
2022-10-09T01:25:32.978Z,40.20
2022-10-09T01:26:33.545Z,39.80
2022-10-09T01:27:32.906Z,38.50
2022-10-09T01:28:32.919Z,38.10
2022-10-09T01:29:41.978Z,32.70
2022-10-09T01:30:41.717Z,31.60
2022-10-09T01:31:41.697Z,31.30
2022-10-09T01:32:42.072Z,33.10
2022-10-09T01:36:06.297Z,31.70
2022-10-09T01:37:17.415Z,36.80
2022-10-09T01:38:24.491Z,40.90
2022-10-09T01:39:14.944Z,40.40
2022-10-09T01:40:17.439Z,41.30
2022-10-09T01:41:15.241Z,38.50
2022-10-09T01:42:13.644Z,46.10
2022-10-09T01:44:30.913Z,37.80
2022-10-09T01:45:43.112Z,41.30
2022-10-09T01:46:40.205Z,42.20
2022-10-09T01:47:47.824Z,42.20
2022-10-09T01:48:32.503Z,40.60
2022-10-09T01:49:31.869Z,39.90
2022-10-09T01:50:31.902Z,38.90
2022-10-09T01:51:53.740Z,37.40
2022-10-09T01:52:31.857Z,37.60
2022-10-09T01:53:32.711Z,38.10
2022-10-09T01:54:31.867Z,38.50
2022-10-09T01:55:31.839Z,37.80
2022-10-09T01:56:32.597Z,37.10
2022-10-09T01:57:33.335Z,38.90
2022-10-09T01:58:31.772Z,43.30
2022-10-09T01:59:31.769Z,40.40
2022-10-09T02:00:31.751Z,44.80
2022-10-09T02:01:31.846Z,46.40
2022-10-09T02:02:32.701Z,58.00
2022-10-09T02:03:31.862Z,60.00
2022-10-09T02:04:31.702Z,48.30
2022-10-09T02:05:32.408Z,51.60
2022-10-09T02:06:31.719Z,49.30
2022-10-09T02:07:31.716Z,48.80
2022-10-09T02:08:31.723Z,48.30
2022-10-09T02:09:31.850Z,49.30
2022-10-09T02:10:31.660Z,42.80
2022-10-09T02:11:31.632Z,42.60
2022-10-09T02:12:31.650Z,40.20
2022-10-09T02:13:31.624Z,41.30
2022-10-09T02:14:32.326Z,42.90
2022-10-09T02:15:31.637Z,38.80
2022-10-09T02:16:36.807Z,38.80
2022-10-09T02:17:31.607Z,35.40
2022-10-09T02:18:31.553Z,34.60
2022-10-09T02:19:31.554Z,31.90
2022-10-09T02:20:32.237Z,33.30
2022-10-09T02:21:31.556Z,31.50
2022-10-09T02:22:32.390Z,31.60
2022-10-09T02:23:31.527Z,30.50
2022-10-09T02:24:31.504Z,29.30
2022-10-09T02:25:31.526Z,29.90
2022-10-09T02:26:31.447Z,30.00
2022-10-09T02:27:48.470Z,30.50
2022-10-09T02:28:31.494Z,29.70
2022-10-09T02:29:31.442Z,30.40
2022-10-09T02:30:31.410Z,29.30
2022-10-09T02:31:32.287Z,30.80
2022-10-09T02:32:31.418Z,29.10
2022-10-09T02:33:31.385Z,29.30
2022-10-09T02:34:31.407Z,30.20
2022-10-09T02:35:31.380Z,29.10
2022-10-09T02:36:31.416Z,29.90
2022-10-09T02:37:31.352Z,30.40
2022-10-09T02:38:31.354Z,32.20
2022-10-09T02:39:31.298Z,30.80
2022-10-09T02:40:31.297Z,32.60
2022-10-09T02:41:32.069Z,36.80
2022-10-09T02:42:31.330Z,33.20
2022-10-09T02:43:31.266Z,32.50
2022-10-09T02:44:31.245Z,30.20
2022-10-09T02:45:31.358Z,30.70
2022-10-09T02:46:31.268Z,29.60
2022-10-09T02:47:31.252Z,31.90
2022-10-09T02:48:31.265Z,32.80
2022-10-09T02:49:31.861Z,36.00
2022-10-09T02:50:31.173Z,36.60
2022-10-09T02:51:31.194Z,38.30
2022-10-09T02:52:31.214Z,37.20
2022-10-09T02:53:31.183Z,34.40
2022-10-09T02:54:31.222Z,32.90
2022-10-09T02:55:31.124Z,32.00
2022-10-09T02:56:34.525Z,32.10
2022-10-09T02:57:31.205Z,34.30
2022-10-09T02:58:31.130Z,32.80
2022-10-09T02:59:31.747Z,33.40
2022-10-09T03:00:31.073Z,33.30
2022-10-09T03:01:31.120Z,33.10
2022-10-09T03:02:31.228Z,33.40
2022-10-09T03:03:32.067Z,32.20
2022-10-09T03:04:31.082Z,31.70
2022-10-09T03:05:31.016Z,31.50
2022-10-09T03:06:31.006Z,31.40
2022-10-09T03:07:30.971Z,32.30
2022-10-09T03:08:31.035Z,30.60
2022-10-09T03:09:33.657Z,31.10
2022-10-09T03:10:30.975Z,30.50
2022-10-09T03:11:31.652Z,30.70
2022-10-09T03:12:30.948Z,31.40
2022-10-09T03:13:30.976Z,31.00
2022-10-09T03:14:30.968Z,30.10
2022-10-09T03:15:31.021Z,31.50
2022-10-09T03:16:31.121Z,30.70
2022-10-09T03:17:30.872Z,31.20
2022-10-09T03:18:30.922Z,31.00
2022-10-09T03:19:30.891Z,32.10
2022-10-09T03:20:30.940Z,31.10
2022-10-09T03:21:30.898Z,30.30
2022-10-09T03:22:38.510Z,31.00
2022-10-09T03:23:30.857Z,29.30
2022-10-09T03:24:30.819Z,30.20
2022-10-09T03:25:30.855Z,29.80
2022-10-09T03:26:30.789Z,28.90
2022-10-09T03:27:30.858Z,28.10
2022-10-09T03:28:30.836Z,27.90
2022-10-09T03:29:30.765Z,28.70
2022-10-09T03:30:31.417Z,27.80
2022-10-09T03:31:51.281Z,28.60
2022-10-09T03:32:30.779Z,30.00
2022-10-09T03:33:40.105Z,29.90
2022-10-09T03:34:31.419Z,29.30
2022-10-09T03:35:30.727Z,30.30
2022-10-09T03:36:30.690Z,30.80
2022-10-09T03:37:30.652Z,31.90
2022-10-09T03:38:31.470Z,33.00
2022-10-09T03:39:30.712Z,31.00
2022-10-09T03:40:30.667Z,30.90
2022-10-09T03:41:30.610Z,32.60
2022-10-09T03:42:30.609Z,31.60
2022-10-09T03:43:31.344Z,31.70
2022-10-09T03:44:31.431Z,32.10
2022-10-09T03:45:30.602Z,31.80
2022-10-09T03:46:30.660Z,31.80
2022-10-09T03:47:30.534Z,32.50
2022-10-09T03:48:30.534Z,32.60
2022-10-09T03:49:30.559Z,32.30
2022-10-09T03:50:30.521Z,31.70
2022-10-09T03:51:31.447Z,32.30
2022-10-09T03:52:30.486Z,32.50
2022-10-09T03:53:30.476Z,32.10
2022-10-09T03:54:31.642Z,31.80
2022-10-09T03:55:30.489Z,32.10
2022-10-09T03:56:30.499Z,30.80
2022-10-09T03:57:31.124Z,31.50
2022-10-09T03:58:30.426Z,32.80
2022-10-09T03:59:30.387Z,31.40
2022-10-09T04:00:30.570Z,31.70
2022-10-09T04:01:31.579Z,31.70
2022-10-09T04:02:30.551Z,33.60
2022-10-09T04:03:30.918Z,31.60
2022-10-09T04:04:30.359Z,32.60
2022-10-09T04:05:32.174Z,32.10
2022-10-09T04:06:32.427Z,32.80
2022-10-09T04:07:38.589Z,32.90
2022-10-09T04:08:39.586Z,34.50
2022-10-09T04:09:30.342Z,33.70
2022-10-09T04:10:30.333Z,32.70
2022-10-09T04:11:30.341Z,31.90
2022-10-09T04:12:32.665Z,31.50
2022-10-09T04:13:31.295Z,32.00
2022-10-09T04:14:30.331Z,32.10
2022-10-09T04:15:30.220Z,31.50
2022-10-09T04:16:30.316Z,30.90
2022-10-09T04:17:30.305Z,31.60
2022-10-09T04:18:30.205Z,31.80
2022-10-09T04:19:30.212Z,31.40
2022-10-09T04:20:30.859Z,30.20
2022-10-09T04:21:31.099Z,32.50
2022-10-09T04:22:30.195Z,30.80
2022-10-09T04:23:30.974Z,30.00
2022-10-09T04:24:30.164Z,30.40
2022-10-09T04:25:31.952Z,30.80
2022-10-09T04:26:30.161Z,32.70
2022-10-09T04:27:31.760Z,32.20
2022-10-09T04:28:31.118Z,32.20
2022-10-09T04:29:30.089Z,32.40
2022-10-09T04:30:30.105Z,32.20
2022-10-09T04:31:30.158Z,32.20
2022-10-09T04:32:30.030Z,34.40
2022-10-09T04:33:30.060Z,33.20
2022-10-09T04:34:30.028Z,32.60
2022-10-09T04:35:30.003Z,32.00
2022-10-09T04:36:30.014Z,32.00
2022-10-09T04:37:29.962Z,32.30
2022-10-09T04:38:30.045Z,32.80
2022-10-09T04:39:29.976Z,32.40
2022-10-09T04:40:29.963Z,31.60
2022-10-09T04:41:32.570Z,32.00
2022-10-09T04:42:29.951Z,32.30
2022-10-09T04:43:29.927Z,31.60
2022-10-09T04:44:29.896Z,31.40
2022-10-09T04:45:29.931Z,32.30
2022-10-09T04:46:30.448Z,31.00
2022-10-09T04:47:29.878Z,30.00
2022-10-09T04:48:30.648Z,31.70
2022-10-09T04:49:29.843Z,31.20
2022-10-09T04:50:29.834Z,30.60
2022-10-09T04:51:29.837Z,31.20
2022-10-09T04:52:29.859Z,30.70
2022-10-09T04:53:29.795Z,31.40
2022-10-09T04:54:29.828Z,30.70
2022-10-09T04:55:29.975Z,31.20
2022-10-09T04:56:29.782Z,30.30
2022-10-09T04:57:29.803Z,30.40
2022-10-09T04:58:29.765Z,30.50
2022-10-09T04:59:29.730Z,30.80
2022-10-09T05:00:29.762Z,29.60
2022-10-09T05:01:32.048Z,29.60
2022-10-09T05:02:29.742Z,28.60
2022-10-09T05:03:29.778Z,29.30
2022-10-09T05:04:29.705Z,29.60
2022-10-09T05:05:29.660Z,29.80
2022-10-09T05:06:30.493Z,29.40
2022-10-09T05:07:29.708Z,29.60
2022-10-09T05:08:29.658Z,30.40
2022-10-09T05:09:29.600Z,29.30
2022-10-09T05:10:29.693Z,29.10
2022-10-09T05:11:31.443Z,29.40
2022-10-09T05:12:29.609Z,29.10
2022-10-09T05:13:29.622Z,29.70
2022-10-09T05:14:29.537Z,29.80
2022-10-09T05:15:29.540Z,30.30
2022-10-09T05:16:29.664Z,30.20
2022-10-09T05:17:29.589Z,29.10
2022-10-09T05:18:29.510Z,30.40
2022-10-09T05:19:29.570Z,30.70
2022-10-09T05:20:29.540Z,30.10
2022-10-09T05:21:29.499Z,29.30
2022-10-09T05:22:29.477Z,30.70
2022-10-09T05:23:29.494Z,28.70
2022-10-09T05:24:29.479Z,29.20
2022-10-09T05:25:29.481Z,30.00
2022-10-09T05:26:29.450Z,29.30
2022-10-09T05:27:29.963Z,30.40
2022-10-09T05:28:29.496Z,30.10
2022-10-09T05:29:29.412Z,28.80
2022-10-09T05:30:30.161Z,28.80
2022-10-09T05:31:29.528Z,29.60
2022-10-09T05:32:30.010Z,29.00
2022-10-09T05:33:29.339Z,29.10
2022-10-09T05:34:29.336Z,27.50
2022-10-09T05:35:29.988Z,28.30
2022-10-09T05:36:29.326Z,28.00
2022-10-09T05:37:29.329Z,27.30
2022-10-09T05:38:29.264Z,28.20
2022-10-09T05:39:30.243Z,27.30
2022-10-09T05:40:31.681Z,28.30
2022-10-09T05:41:29.247Z,27.70
2022-10-09T05:42:29.244Z,28.10
2022-10-09T05:43:29.288Z,27.50
2022-10-09T05:44:29.199Z,27.10
2022-10-09T05:45:29.251Z,27.00
2022-10-09T05:46:29.891Z,27.20
2022-10-09T05:47:29.214Z,26.90
2022-10-09T05:48:29.187Z,27.60
2022-10-09T05:49:29.198Z,26.30
2022-10-09T05:50:29.147Z,26.50
2022-10-09T05:51:29.141Z,26.80
2022-10-09T05:52:29.140Z,26.70
2022-10-09T05:53:31.665Z,27.20
2022-10-09T05:54:29.117Z,27.30
2022-10-09T05:55:29.118Z,28.70
2022-10-09T05:56:29.083Z,27.70
2022-10-09T05:57:29.058Z,28.50
2022-10-09T05:58:29.090Z,26.60
2022-10-09T05:59:29.112Z,26.20
2022-10-09T06:00:29.121Z,26.40
2022-10-09T06:01:29.082Z,28.00
2022-10-09T06:02:29.098Z,26.20
2022-10-09T06:03:29.062Z,26.20
2022-10-09T06:04:29.024Z,26.70
2022-10-09T06:05:30.192Z,25.80
2022-10-09T06:06:29.889Z,26.70
2022-10-09T06:07:28.956Z,28.20
2022-10-09T06:08:28.967Z,26.10
2022-10-09T06:09:28.932Z,25.20
2022-10-09T06:10:32.275Z,26.00
2022-10-09T06:11:29.606Z,26.40
2022-10-09T06:12:28.921Z,26.60
2022-10-09T06:13:28.917Z,26.80
2022-10-09T06:14:28.877Z,26.20
2022-10-09T06:15:28.878Z,26.50
2022-10-09T06:16:28.917Z,27.50
2022-10-09T06:17:28.873Z,26.00
2022-10-09T06:18:28.849Z,26.70
2022-10-09T06:19:28.879Z,25.70
2022-10-09T06:20:28.926Z,27.40
2022-10-09T06:21:28.820Z,26.00
2022-10-09T06:22:28.805Z,26.70
2022-10-09T06:23:28.815Z,27.40
2022-10-09T06:24:29.602Z,26.80
2022-10-09T06:25:29.510Z,27.50
2022-10-09T06:26:28.764Z,28.00
2022-10-09T06:27:28.755Z,26.90
2022-10-09T06:28:28.799Z,26.90
2022-10-09T06:29:28.727Z,27.20
2022-10-09T06:30:29.643Z,27.60
2022-10-09T06:31:28.771Z,27.10
2022-10-09T06:32:28.684Z,29.00
2022-10-09T06:33:28.690Z,29.30
2022-10-09T06:34:28.694Z,30.30
2022-10-09T06:35:28.698Z,30.20
2022-10-09T06:36:29.483Z,29.50
2022-10-09T06:37:30.669Z,29.20
2022-10-09T06:38:28.641Z,29.70
2022-10-09T06:39:28.655Z,29.20
2022-10-09T06:40:28.603Z,30.90
2022-10-09T06:41:28.590Z,29.60
2022-10-09T06:42:29.492Z,30.10
2022-10-09T06:43:28.629Z,31.00
2022-10-09T06:44:28.580Z,29.80
2022-10-09T06:45:28.623Z,30.30
2022-10-09T06:46:28.547Z,28.60
2022-10-09T06:47:28.528Z,28.30
2022-10-09T06:48:28.553Z,25.80
2022-10-09T06:49:28.528Z,27.50
2022-10-09T06:50:28.482Z,26.00
2022-10-09T06:51:28.496Z,26.10
2022-10-09T06:52:28.460Z,27.10
2022-10-09T06:53:28.470Z,26.80
2022-10-09T06:54:28.428Z,26.40
2022-10-09T06:55:28.918Z,24.20
2022-10-09T06:56:28.405Z,22.90
2022-10-09T06:57:28.426Z,21.50
2022-10-09T06:58:28.395Z,21.30
2022-10-09T06:59:28.389Z,22.40
2022-10-09T07:00:28.392Z,21.10
2022-10-09T07:01:36.640Z,20.10
2022-10-09T07:02:38.248Z,19.80
2022-10-09T07:04:49.637Z,25.00
2022-10-09T07:05:51.474Z,24.60
2022-10-09T07:06:50.649Z,22.90
2022-10-09T07:07:50.606Z,23.80
2022-10-09T07:08:50.572Z,21.70
2022-10-09T07:09:50.586Z,21.60
2022-10-09T07:10:50.563Z,21.60
2022-10-09T07:11:50.569Z,21.40
2022-10-09T07:12:51.757Z,21.40
2022-10-09T07:13:50.560Z,21.10
2022-10-09T07:14:50.529Z,21.50
2022-10-09T07:15:51.310Z,20.80
2022-10-09T07:16:51.218Z,19.70
2022-10-09T07:17:50.505Z,20.50
2022-10-09T07:18:50.544Z,20.70
2022-10-09T07:19:50.462Z,20.80
2022-10-09T07:20:50.441Z,19.70
2022-10-09T07:21:50.442Z,21.00
2022-10-09T07:22:51.624Z,20.50
2022-10-09T07:23:50.440Z,20.80
2022-10-09T07:24:50.429Z,22.00
2022-10-09T07:25:50.392Z,21.80
2022-10-09T07:26:50.372Z,19.40
2022-10-09T07:27:51.081Z,21.20
2022-10-09T07:28:50.478Z,20.80
2022-10-09T07:29:50.368Z,20.50
2022-10-09T07:30:51.064Z,20.90
2022-10-09T07:31:50.316Z,20.50
2022-10-09T07:32:51.051Z,20.50
2022-10-09T07:33:51.141Z,19.90
2022-10-09T07:34:50.305Z,20.40
2022-10-09T07:35:50.301Z,19.90
2022-10-09T07:36:50.282Z,19.70
2022-10-09T07:37:50.273Z,18.50
2022-10-09T07:38:50.270Z,20.10
2022-10-09T07:39:50.285Z,18.80
2022-10-09T07:40:50.204Z,19.20
2022-10-09T10:37:03.489Z,17.60
2022-10-09T10:38:04.135Z,18.60
2022-10-09T10:39:26.643Z,16.70
2022-10-09T10:40:03.400Z,17.20
2022-10-09T10:41:03.386Z,16.80
2022-10-09T10:42:03.374Z,17.50
2022-10-09T10:43:04.225Z,17.00
2022-10-09T10:44:03.312Z,17.30
2022-10-09T10:45:04.897Z,16.70
2022-10-09T10:46:04.202Z,17.60
2022-10-09T10:47:03.658Z,16.70
2022-10-09T10:48:03.291Z,16.40
2022-10-09T10:49:03.347Z,16.00
2022-10-09T10:50:06.372Z,15.40
2022-10-09T10:51:03.266Z,16.00
2022-10-09T10:52:05.572Z,16.00
2022-10-09T10:53:03.249Z,16.60
2022-10-09T10:54:03.263Z,15.30
2022-10-09T10:55:03.214Z,15.30
2022-10-09T10:56:05.389Z,16.50
2022-10-09T10:57:03.229Z,15.40
2022-10-09T10:58:05.259Z,14.10
2022-10-09T10:59:03.708Z,14.60
2022-10-09T11:00:03.160Z,14.40
2022-10-09T11:01:03.226Z,15.30
2022-10-09T11:02:03.696Z,14.20
2022-10-09T11:03:06.400Z,14.00
2022-10-09T11:04:03.120Z,14.20
2022-10-09T11:05:03.093Z,13.50
2022-10-09T11:06:03.115Z,13.50
2022-10-09T11:07:03.667Z,13.70
2022-10-09T11:08:03.858Z,13.20
2022-10-09T11:10:42.671Z,14.10
2022-10-09T11:11:45.801Z,13.10
2022-10-09T11:12:57.822Z,14.10
2022-10-09T11:13:46.171Z,14.20
2022-10-09T11:14:45.738Z,13.30
2022-10-09T11:15:43.607Z,13.30
2022-10-09T11:16:44.404Z,14.10
2022-10-09T11:17:43.706Z,14.40
2022-10-09T11:18:43.602Z,13.40
2022-10-09T18:04:06.391Z,8.70
2022-10-09T18:05:07.094Z,8.30
2022-10-09T18:06:07.056Z,8.80
2022-10-09T18:07:07.077Z,8.40
2022-10-09T18:08:07.790Z,7.60
2022-10-09T18:09:09.025Z,7.90
2022-10-09T18:10:07.036Z,8.60
2022-10-09T18:11:07.027Z,8.60
2022-10-09T18:12:07.040Z,9.00
2022-10-09T18:13:07.033Z,9.40
2022-10-09T18:14:06.954Z,9.90
2022-10-09T18:15:06.970Z,12.00
2022-10-09T18:16:06.994Z,13.30
2022-10-09T18:17:06.983Z,14.90
2022-10-09T18:18:06.918Z,16.30
2022-10-09T18:19:07.835Z,14.80
2022-10-09T18:20:07.793Z,13.70
2022-10-09T18:21:06.907Z,14.30
2022-10-09T18:22:08.724Z,11.20
2022-10-09T18:23:07.545Z,11.60
2022-10-09T18:24:06.871Z,12.60
2022-10-09T18:25:06.860Z,12.10
2022-10-09T18:26:08.036Z,11.80
2022-10-09T18:27:07.576Z,11.90
2022-10-09T18:28:06.962Z,10.00
2022-10-09T18:29:06.849Z,10.00
2022-10-09T18:30:07.576Z,9.60
2022-10-09T18:31:06.775Z,10.00
2022-10-09T18:32:06.818Z,9.80
2022-10-09T18:33:07.763Z,10.70
2022-10-09T18:34:07.690Z,9.50
2022-10-09T18:35:06.758Z,9.10
2022-10-09T18:36:07.907Z,8.90
2022-10-09T18:37:07.898Z,8.30
2022-10-09T18:38:06.696Z,8.50
2022-10-09T18:39:09.393Z,8.60
2022-10-09T18:40:07.519Z,8.50
2022-10-09T18:41:07.846Z,9.60
2022-10-09T18:42:06.660Z,9.30
2022-10-09T18:43:07.468Z,8.60
2022-10-09T18:44:06.633Z,8.80
2022-10-09T18:45:07.539Z,8.10
2022-10-09T18:46:06.659Z,7.70
2022-10-09T18:47:06.612Z,7.60
2022-10-09T18:48:06.601Z,7.20
2022-10-09T18:49:09.159Z,8.70
2022-10-09T18:50:06.590Z,7.40
2022-10-09T18:51:06.597Z,7.50
2022-10-09T18:52:06.587Z,7.90
2022-10-09T18:53:06.536Z,9.10
2022-10-09T18:54:06.512Z,8.10
2022-10-09T18:55:06.492Z,7.80
2022-10-09T18:56:06.528Z,7.30
2022-10-09T18:57:07.062Z,7.20
2022-10-09T18:58:07.177Z,6.70
2022-10-09T18:59:07.022Z,6.40
2022-10-09T19:00:06.453Z,6.30
2022-10-09T19:01:07.812Z,5.90
2022-10-09T19:02:06.489Z,7.90
2022-10-09T19:03:06.454Z,6.20
2022-10-09T19:04:06.398Z,6.00
2022-10-09T19:05:07.012Z,5.80
2022-10-09T19:06:07.036Z,5.90
2022-10-09T19:07:06.387Z,5.70
2022-10-09T19:08:06.406Z,5.60
2022-10-09T19:09:07.402Z,5.50
2022-10-09T19:10:06.340Z,5.40
2022-10-09T19:11:06.330Z,5.70
2022-10-09T19:12:07.321Z,6.10
2022-10-09T19:13:06.321Z,5.60
2022-10-09T19:14:07.056Z,5.70
2022-10-09T19:15:11.842Z,5.60
2022-10-09T19:16:06.266Z,6.10
2022-10-09T19:17:07.050Z,6.00
2022-10-09T19:18:06.283Z,6.20
2022-10-09T19:19:06.248Z,6.10
2022-10-09T19:20:07.157Z,6.40
2022-10-09T19:21:06.248Z,5.60
2022-10-09T19:22:08.183Z,5.60
2022-10-09T19:23:06.231Z,5.70
2022-10-09T19:24:06.257Z,5.60
2022-10-09T19:25:06.207Z,5.80
2022-10-09T19:26:07.043Z,6.20
2022-10-09T19:27:08.061Z,5.70
2022-10-09T19:28:06.987Z,5.80
2022-10-09T19:29:06.111Z,5.40
2022-10-09T19:30:06.142Z,5.50
2022-10-09T19:31:06.108Z,5.30
2022-10-09T19:32:06.131Z,5.70
2022-10-09T19:33:06.796Z,6.60
2022-10-09T19:34:07.104Z,6.00
2022-10-09T19:35:07.258Z,4.80
2022-10-09T19:36:06.038Z,5.30
2022-10-09T19:37:07.071Z,4.70
2022-10-09T19:38:06.038Z,4.90
2022-10-09T19:39:06.048Z,5.10
2022-10-09T19:40:06.018Z,4.80
2022-10-09T19:41:06.922Z,5.20
2022-10-09T19:42:06.891Z,5.10
2022-10-09T19:43:05.965Z,4.80
2022-10-09T19:44:05.974Z,5.10
2022-10-09T19:45:05.978Z,5.40
2022-10-09T19:46:05.944Z,5.60
2022-10-09T19:47:06.191Z,6.00
2022-10-09T19:48:05.958Z,5.60
2022-10-09T19:49:06.735Z,5.40
2022-10-09T19:50:05.893Z,5.50
2022-10-09T19:51:05.877Z,6.70
2022-10-09T19:52:05.934Z,6.60
2022-10-09T19:53:05.835Z,6.20
2022-10-09T19:54:08.884Z,6.30
2022-10-09T19:55:08.234Z,5.90
2022-10-09T19:56:05.826Z,5.90
2022-10-09T19:57:11.076Z,6.30
2022-10-09T20:01:38.227Z,5.90
2022-10-09T20:02:37.408Z,6.00
2022-10-09T20:03:37.107Z,6.40
2022-10-09T20:04:37.096Z,6.40
2022-10-09T20:05:39.634Z,5.60
2022-10-09T20:06:38.646Z,5.30
2022-10-09T20:07:37.119Z,5.60
2022-10-09T20:08:39.598Z,5.00
2022-10-09T20:09:37.057Z,4.80
2022-10-09T20:10:37.067Z,5.30
2022-10-09T20:11:37.054Z,5.00
2022-10-09T20:12:37.921Z,5.10
2022-10-09T20:13:36.989Z,5.70
2022-10-09T20:14:37.702Z,5.10
2022-10-09T20:15:37.000Z,4.90
2022-10-09T20:16:37.093Z,5.40
2022-10-09T20:17:36.944Z,4.60
2022-10-09T20:18:37.892Z,4.50
2022-10-09T20:19:40.290Z,4.80
2022-10-09T20:20:37.154Z,4.60
2022-10-09T20:21:36.896Z,5.00
2022-10-09T20:22:36.939Z,4.60
2022-10-09T20:23:36.895Z,4.70
2022-10-09T20:24:37.574Z,4.90
2022-10-09T20:25:36.867Z,4.70
2022-10-09T20:26:42.196Z,4.90
2022-10-09T20:27:37.407Z,5.30
2022-10-09T20:28:37.627Z,4.40
2022-10-09T20:29:36.803Z,4.90
2022-10-09T20:30:36.822Z,4.50
2022-10-09T20:31:36.800Z,4.80
2022-10-09T20:32:36.840Z,4.90
2022-10-09T20:33:36.770Z,5.60
2022-10-09T20:34:37.447Z,5.30
2022-10-09T20:35:36.728Z,5.70
2022-10-09T20:36:36.745Z,4.90
2022-10-09T20:37:36.761Z,6.40
2022-10-09T20:38:36.737Z,5.00
2022-10-09T20:39:36.704Z,5.20
2022-10-09T20:40:36.670Z,5.80
2022-10-09T20:41:36.658Z,5.00
2022-10-09T20:42:36.683Z,4.90
2022-10-09T20:43:36.698Z,5.30
2022-10-09T20:44:36.672Z,5.40
2022-10-09T20:45:36.662Z,5.70
2022-10-09T20:46:36.602Z,5.40
2022-10-09T20:47:36.635Z,5.50
2022-10-09T20:48:36.658Z,5.20
2022-10-09T20:49:36.573Z,5.30
2022-10-09T20:50:36.594Z,5.30
2022-10-09T20:51:36.565Z,5.90
2022-10-09T20:52:36.542Z,5.70
2022-10-09T20:53:36.544Z,6.60
2022-10-09T20:54:36.547Z,6.00
2022-10-09T20:55:36.518Z,6.30
2022-10-09T20:56:36.534Z,6.50
2022-10-09T20:57:36.538Z,6.80
2022-10-09T20:58:36.532Z,6.70
2022-10-09T20:59:36.484Z,6.90
2022-10-09T21:00:37.172Z,6.80
2022-10-09T21:01:36.438Z,6.20
2022-10-09T21:02:40.934Z,6.90
2022-10-09T21:03:37.398Z,6.70
2022-10-09T21:04:37.101Z,7.10
2022-10-09T21:05:36.410Z,6.70
2022-10-09T21:06:36.376Z,7.00
2022-10-09T21:07:36.391Z,7.80
2022-10-09T21:08:36.372Z,7.50
2022-10-09T21:09:36.381Z,8.00
2022-10-09T21:10:36.394Z,8.00
2022-10-09T21:11:36.306Z,8.20
2022-10-09T21:12:36.363Z,8.60
2022-10-09T21:13:37.234Z,8.70
2022-10-09T21:14:36.335Z,8.20
